Time;durP1;ratioP1;P1;durP2;ratioP2;P2;SDS_P1;SDS_P2;PMS_P1;PMS_P2;Temp;Humidity;BMP_temperature;BMP_pressure;BME280_temperature;BME280_humidity;BME280_pressure;Samples;Min_cycle;Max_cycle;Signal;HPM_P1;HPM_P2
2022/03/19 00:02:19;;;;;;;17.07;3.37;;;4.40;99.90;;;;;;4990251;28;20533;-45
2022/03/19 00:04:47;;;;;;;9.87;3.23;;;4.40;99.90;;;;;;5002703;28;20253;-45
2022/03/19 00:07:14;;;;;;;11.20;3.33;;;4.40;99.90;;;;;;4991929;28;20224;-47
2022/03/19 00:09:41;;;;;;;12.87;3.17;;;4.40;99.90;;;;;;5008350;28;20244;-44
2022/03/19 00:12:13;;;;;;;10.00;2.87;;;4.40;99.90;;;;;;5019099;28;20574;-46
2022/03/19 00:14:40;;;;;;;14.93;4.00;;;4.50;99.90;;;;;;4979209;28;20290;-44
2022/03/19 00:17:08;;;;;;;9.03;3.47;;;4.40;99.90;;;;;;5014334;28;20581;-43
2022/03/19 00:19:35;;;;;;;12.63;3.13;;;4.50;99.90;;;;;;5005765;28;20496;-48
2022/03/19 00:22:02;;;;;;;7.37;2.73;;;4.50;99.90;;;;;;5003116;28;20194;-43
2022/03/19 00:24:29;;;;;;;10.70;2.93;;;4.50;99.90;;;;;;5008080;28;20289;-50
2022/03/19 00:26:56;;;;;;;7.93;3.03;;;4.60;99.90;;;;;;5007639;28;20670;-42
2022/03/19 00:29:23;;;;;;;14.20;3.30;;;4.50;99.90;;;;;;5007724;28;20216;-50
2022/03/19 00:31:50;;;;;;;9.60;3.30;;;4.50;99.90;;;;;;4991864;28;20220;-44
2022/03/19 00:34:18;;;;;;;9.83;3.43;;;4.60;99.90;;;;;;5001379;28;20665;-45
2022/03/19 00:36:45;;;;;;;10.00;3.13;;;4.60;99.90;;;;;;4996858;28;20246;-45
2022/03/19 00:39:12;;;;;;;8.67;3.37;;;4.60;99.90;;;;;;4998107;28;20227;-46
2022/03/19 00:41:39;;;;;;;8.40;3.43;;;4.50;99.90;;;;;;4992999;28;20232;-44
2022/03/19 00:44:06;;;;;;;11.67;3.20;;;4.40;99.90;;;;;;4999505;28;20239;-44
2022/03/19 00:46:33;;;;;;;7.00;3.50;;;4.30;99.90;;;;;;5000325;28;20225;-44
2022/03/19 00:49:00;;;;;;;9.37;3.27;;;4.40;99.90;;;;;;5004932;28;20870;-45
2022/03/19 00:51:28;;;;;;;14.50;3.20;;;4.40;99.90;;;;;;4995707;28;20210;-45
2022/03/19 00:53:55;;;;;;;13.13;3.40;;;4.40;99.90;;;;;;5003896;28;20329;-44
2022/03/19 00:56:22;;;;;;;13.80;3.57;;;4.40;99.90;;;;;;5012853;28;20377;-45
2022/03/19 00:58:49;;;;;;;8.53;3.43;;;4.30;99.90;;;;;;4996336;28;20320;-45
2022/03/19 01:01:15;;;;;;;8.70;3.80;;;4.50;99.90;;;;;;4993828;28;20529;-45
2022/03/19 01:03:42;;;;;;;9.40;3.43;;;4.30;99.90;;;;;;5003100;28;20331;-44
2022/03/19 01:06:09;;;;;;;7.40;3.20;;;4.30;99.90;;;;;;5001858;28;20521;-45
2022/03/19 01:08:37;;;;;;;8.83;4.00;;;4.20;99.90;;;;;;4984647;28;20369;-45
2022/03/19 01:11:04;;;;;;;10.43;3.00;;;4.10;99.90;;;;;;5011331;28;20533;-43
2022/03/19 01:13:31;;;;;;;10.33;4.10;;;4.10;99.90;;;;;;4997866;28;20601;-48
2022/03/19 01:15:58;;;;;;;9.60;4.03;;;3.90;99.90;;;;;;4987795;28;20231;-43
2022/03/19 01:18:25;;;;;;;11.30;3.23;;;3.90;99.90;;;;;;5010599;28;20293;-48
2022/03/19 01:20:52;;;;;;;9.10;3.50;;;3.90;99.90;;;;;;5005454;28;20673;-45
2022/03/19 01:23:18;;;;;;;9.10;3.70;;;4.00;99.90;;;;;;4988328;28;20253;-48
2022/03/19 01:25:47;;;;;;;7.63;4.03;;;4.00;99.90;;;;;;5012527;28;20770;-45
2022/03/19 01:28:13;;;;;;;12.80;3.70;;;3.90;99.90;;;;;;4995872;28;20228;-47
2022/03/19 01:30:41;;;;;;;9.50;3.80;;;3.90;99.90;;;;;;4994898;28;20686;-43
2022/03/19 01:33:08;;;;;;;17.87;3.80;;;3.90;99.90;;;;;;5007073;28;20234;-44
2022/03/19 01:35:35;;;;;;;9.37;3.93;;;3.90;99.90;;;;;;5012666;28;20201;-49
2022/03/19 01:38:04;;;;;;;10.97;4.30;;;3.80;99.90;;;;;;4991468;28;20285;-46
2022/03/19 01:40:31;;;;;;;11.73;3.80;;;3.90;99.90;;;;;;5007132;28;20206;-49
2022/03/19 01:43:00;;;;;;;13.40;4.60;;;3.80;99.90;;;;;;4999672;28;20586;-43
2022/03/19 01:45:27;;;;;;;13.10;4.33;;;3.90;99.90;;;;;;5003119;28;20213;-49
2022/03/19 01:47:54;;;;;;;9.60;3.93;;;3.90;99.90;;;;;;4999207;28;20217;-46
2022/03/19 01:50:23;;;;;;;14.20;4.60;;;3.90;99.90;;;;;;5007609;28;20219;-49
2022/03/19 01:52:50;;;;;;;11.20;4.33;;;3.90;99.90;;;;;;4998030;28;20226;-48
2022/03/19 01:55:21;;;;;;;6.07;3.50;;;3.80;99.90;;;;;;4999173;28;20209;-43
2022/03/19 01:57:49;;;;;;;11.17;4.13;;;3.70;99.90;;;;;;5008407;28;20549;-44
2022/03/19 02:00:21;;;;;;;11.20;4.17;;;3.80;99.90;;;;;;5009338;28;20344;-44
2022/03/19 02:02:49;;;;;;;13.10;4.17;;;3.80;99.90;;;;;;4994915;28;23284;-45
2022/03/19 02:05:18;;;;;;;9.23;4.07;;;3.60;99.90;;;;;;5013989;28;20836;-44
2022/03/19 02:07:46;;;;;;;13.50;4.27;;;3.60;99.90;;;;;;5007250;28;20696;-44
2022/03/19 02:10:14;;;;;;;9.87;3.83;;;3.60;99.90;;;;;;5001982;28;20214;-44
2022/03/19 02:12:41;;;;;;;9.87;3.93;;;3.50;99.90;;;;;;5010743;28;20329;-45
2022/03/19 02:15:10;;;;;;;12.20;4.40;;;3.50;99.90;;;;;;5007890;28;20219;-45
2022/03/19 02:17:39;;;;;;;10.80;4.07;;;3.40;99.90;;;;;;4996787;28;20354;-44
2022/03/19 02:20:07;;;;;;;10.07;4.43;;;3.20;99.90;;;;;;5022265;28;20572;-45
2022/03/19 02:22:34;;;;;;;10.00;4.57;;;3.20;99.90;;;;;;4991727;28;20239;-45
2022/03/19 02:27:47;;;;;;;12.23;4.23;;;3.40;99.90;;;;;;5007309;28;20241;-45
2022/03/19 02:30:16;;;;;;;13.37;4.17;;;3.50;99.90;;;;;;5016852;28;20234;-43
2022/03/19 02:32:47;;;;;;;11.57;4.40;;;3.40;99.90;;;;;;5008106;28;20272;-45
2022/03/19 02:35:14;;;;;;;11.33;4.30;;;3.30;99.90;;;;;;5005264;28;20240;-44
2022/03/19 02:37:43;;;;;;;13.27;4.30;;;3.20;99.90;;;;;;5007510;28;20402;-44
2022/03/19 02:40:13;;;;;;;10.60;4.20;;;3.20;99.90;;;;;;4991372;28;20270;-43
2022/03/19 02:42:40;;;;;;;10.70;3.87;;;3.20;99.90;;;;;;5000312;28;20344;-45
2022/03/19 02:45:09;;;;;;;11.93;3.93;;;3.00;99.90;;;;;;5020779;28;20277;-45
2022/03/19 02:47:56;;;;;;;10.87;3.80;;;3.00;99.90;;;;;;5000303;28;20220;-45
2022/03/19 02:50:24;;;;;;;6.60;3.83;;;3.00;99.90;;;;;;4997107;28;20221;-43
2022/03/19 02:52:51;;;;;;;11.97;4.57;;;3.00;99.90;;;;;;4997570;28;20409;-45
2022/03/19 02:55:20;;;;;;;9.90;4.00;;;3.10;99.90;;;;;;5001848;28;20244;-46
2022/03/19 02:57:47;;;;;;;8.87;4.03;;;3.10;99.90;;;;;;5003599;28;22636;-45
2022/03/19 03:00:15;;;;;;;12.27;4.70;;;2.90;99.90;;;;;;5015665;28;20215;-46
2022/03/19 03:02:41;;;;;;;11.77;5.07;;;3.00;99.90;;;;;;5000534;28;20469;-46
2022/03/19 03:05:11;;;;;;;14.60;5.17;;;3.10;99.90;;;;;;5003402;28;20311;-44
2022/03/19 03:07:38;;;;;;;10.50;4.40;;;3.00;99.90;;;;;;4996800;28;20450;-44
2022/03/19 03:10:06;;;;;;;19.07;4.90;;;2.90;99.90;;;;;;5002718;28;20247;-45
2022/03/19 03:12:34;;;;;;;9.43;4.50;;;3.10;99.90;;;;;;4996379;28;20387;-45
2022/03/19 03:15:01;;;;;;;13.40;4.90;;;3.00;99.90;;;;;;5013385;28;20609;-46
2022/03/19 03:17:29;;;;;;;11.80;5.50;;;3.00;99.90;;;;;;5001715;28;20689;-46
2022/03/19 03:19:56;;;;;;;8.87;4.40;;;3.10;99.90;;;;;;5015000;28;20215;-44
2022/03/19 03:22:23;;;;;;;27.67;6.03;;;3.10;99.90;;;;;;4985650;28;20257;-46
2022/03/19 03:24:50;;;;;;;16.27;6.00;;;3.00;99.90;;;;;;5003723;28;20871;-44
2022/03/19 03:27:17;;;;;;;14.53;5.07;;;2.90;99.90;;;;;;4996863;28;20218;-46
2022/03/19 03:29:45;;;;;;;12.17;4.77;;;2.90;99.90;;;;;;4997301;28;20562;-45
2022/03/19 03:32:12;;;;;;;11.70;4.30;;;2.80;99.90;;;;;;5013770;28;20217;-45
2022/03/19 03:34:41;;;;;;;14.63;6.23;;;2.60;99.90;;;;;;4987766;28;21233;-45
2022/03/19 03:37:08;;;;;;;12.87;5.40;;;2.70;99.90;;;;;;5001226;28;20209;-44
2022/03/19 03:39:35;;;;;;;17.33;5.67;;;2.70;99.90;;;;;;4993631;28;20758;-44
2022/03/19 03:42:02;;;;;;;12.90;4.77;;;2.80;99.90;;;;;;5007951;28;20223;-45
2022/03/19 03:44:29;;;;;;;14.13;5.23;;;2.90;99.90;;;;;;4990677;28;20328;-44
2022/03/19 03:46:57;;;;;;;11.03;5.07;;;3.00;99.90;;;;;;5004078;28;20602;-44
2022/03/19 03:49:24;;;;;;;17.20;5.10;;;3.10;99.90;;;;;;5005469;28;20283;-44
2022/03/19 03:51:51;;;;;;;13.23;5.80;;;3.10;99.90;;;;;;4998465;28;20242;-44
2022/03/19 03:54:18;;;;;;;13.70;4.77;;;3.20;99.90;;;;;;5003342;28;20226;-45
2022/03/19 03:56:45;;;;;;;14.27;5.37;;;3.10;99.90;;;;;;4988465;28;20626;-45
2022/03/19 03:59:13;;;;;;;14.30;4.80;;;3.10;99.90;;;;;;5000053;28;20460;-46
2022/03/19 04:01:39;;;;;;;11.20;4.43;;;3.00;99.90;;;;;;4996927;28;20585;-44
2022/03/19 04:04:08;;;;;;;10.93;4.47;;;2.90;99.90;;;;;;5012883;28;20252;-49
2022/03/19 04:06:35;;;;;;;12.13;4.70;;;2.90;99.90;;;;;;4997988;28;20230;-43
2022/03/19 04:09:01;;;;;;;11.00;4.33;;;2.90;99.90;;;;;;5002175;28;20281;-45
2022/03/19 04:11:28;;;;;;;14.93;4.63;;;2.90;99.90;;;;;;4994672;28;20217;-44
2022/03/19 04:13:55;;;;;;;16.93;4.30;;;3.30;99.90;;;;;;4994569;28;20977;-45
2022/03/19 04:16:22;;;;;;;8.07;4.40;;;3.00;99.90;;;;;;5000602;28;20700;-43
2022/03/19 04:18:49;;;;;;;15.17;4.73;;;3.20;99.90;;;;;;5003359;28;22555;-44
2022/03/19 04:21:17;;;;;;;9.40;4.23;;;3.10;99.90;;;;;;5007581;28;20417;-45
2022/03/19 04:23:44;;;;;;;13.43;4.70;;;3.20;99.90;;;;;;4991514;28;20457;-45
2022/03/19 04:26:11;;;;;;;13.93;4.37;;;3.20;99.90;;;;;;4994152;28;20216;-45
2022/03/19 04:28:38;;;;;;;20.30;5.10;;;3.10;99.90;;;;;;4991113;28;20219;-44
2022/03/19 04:31:05;;;;;;;15.00;4.40;;;3.20;99.90;;;;;;5011988;28;20698;-45
2022/03/19 04:33:32;;;;;;;11.00;3.97;;;3.20;99.90;;;;;;5012559;28;20236;-44
2022/03/19 04:38:44;;;;;;;8.87;4.53;;;3.20;99.90;;;;;;5003675;28;20211;-45
2022/03/19 04:41:14;;;;;;;14.93;4.10;;;3.20;99.90;;;;;;4985713;28;20219;-45
2022/03/19 04:43:41;;;;;;;10.57;4.93;;;3.20;99.90;;;;;;5013211;28;20231;-45
2022/03/19 04:46:08;;;;;;;10.87;4.90;;;3.20;99.90;;;;;;5001280;28;20215;-44
2022/03/19 04:48:34;;;;;;;11.83;4.07;;;3.20;99.90;;;;;;5015971;28;20460;-45
2022/03/19 04:51:02;;;;;;;13.67;4.30;;;3.20;99.90;;;;;;4992167;28;20218;-44
2022/03/19 04:53:29;;;;;;;11.23;3.83;;;3.20;99.90;;;;;;5005304;28;20273;-44
2022/03/19 04:55:57;;;;;;;8.83;3.87;;;3.10;99.90;;;;;;4990681;28;20211;-45
2022/03/19 04:58:24;;;;;;;12.37;4.07;;;3.10;99.90;;;;;;4990494;28;20223;-44
2022/03/19 05:00:51;;;;;;;14.83;4.20;;;3.10;99.90;;;;;;4999466;28;20256;-45
2022/03/19 05:03:17;;;;;;;15.17;4.70;;;3.10;99.90;;;;;;5016307;28;20453;-44
2022/03/19 05:05:44;;;;;;;11.87;3.37;;;3.10;99.90;;;;;;4998191;28;20328;-44
2022/03/19 05:08:11;;;;;;;15.43;4.83;;;3.20;99.90;;;;;;5010082;28;20214;-44
2022/03/19 05:13:23;;;;;;;11.07;4.43;;;3.10;99.90;;;;;;5000586;28;20301;-45
2022/03/19 05:15:50;;;;;;;18.20;4.07;;;3.10;99.90;;;;;;4995922;28;20235;-45
2022/03/19 05:18:17;;;;;;;12.10;4.10;;;3.10;99.90;;;;;;5016108;28;20821;-45
2022/03/19 05:20:44;;;;;;;14.17;3.90;;;3.10;99.90;;;;;;4997310;28;20833;-46
2022/03/19 05:23:12;;;;;;;8.20;4.13;;;3.10;99.90;;;;;;5017913;28;20737;-45
2022/03/19 05:25:40;;;;;;;17.63;4.40;;;3.10;99.90;;;;;;4997462;28;20237;-45
2022/03/19 05:28:07;;;;;;;12.80;3.97;;;3.20;99.90;;;;;;4996086;28;20275;-45
2022/03/19 05:30:37;;;;;;;11.53;3.90;;;3.20;99.90;;;;;;5007380;28;20238;-45
2022/03/19 05:33:04;;;;;;;12.30;3.50;;;3.20;99.90;;;;;;5011421;28;20307;-45
2022/03/19 05:35:31;;;;;;;14.87;4.13;;;3.30;99.90;;;;;;5007595;28;20203;-46
2022/03/19 05:37:59;;;;;;;12.30;4.03;;;3.20;99.90;;;;;;5006038;28;20528;-45
2022/03/19 05:40:26;;;;;;;15.97;4.03;;;3.20;99.90;;;;;;5002490;28;20635;-44
2022/03/19 05:42:53;;;;;;;15.97;3.93;;;3.20;99.90;;;;;;5008786;28;20296;-44
2022/03/19 05:45:21;;;;;;;11.90;3.93;;;3.30;99.90;;;;;;5004262;28;20565;-43
2022/03/19 05:47:49;;;;;;;13.83;5.73;;;3.30;99.90;;;;;;4990336;28;20631;-45
2022/03/19 05:50:16;;;;;;;11.20;3.60;;;3.30;99.90;;;;;;5018655;28;20517;-43
2022/03/19 05:52:45;;;;;;;12.90;3.80;;;3.30;99.90;;;;;;5010118;28;20465;-44
2022/03/19 05:55:12;;;;;;;11.00;4.33;;;3.30;99.90;;;;;;5014868;28;20232;-45
2022/03/19 05:57:40;;;;;;;12.67;3.13;;;3.40;99.90;;;;;;4993559;28;20217;-45
2022/03/19 06:00:08;;;;;;;8.77;3.50;;;3.30;99.90;;;;;;5005851;28;20489;-45
2022/03/19 06:02:39;;;;;;;12.17;3.77;;;3.30;99.90;;;;;;4992655;28;20399;-44
2022/03/19 06:05:08;;;;;;;14.17;4.13;;;3.30;99.90;;;;;;4999703;28;20304;-45
2022/03/19 06:07:35;;;;;;;11.57;4.40;;;3.30;99.90;;;;;;5010394;28;20464;-44
2022/03/19 06:10:02;;;;;;;9.47;4.23;;;3.30;99.90;;;;;;5017960;28;20209;-43
2022/03/19 06:12:29;;;;;;;17.57;4.33;;;3.30;99.90;;;;;;4985977;28;25860;-43
2022/03/19 06:14:56;;;;;;;9.57;3.80;;;3.30;99.90;;;;;;5000383;28;20285;-45
2022/03/19 06:17:23;;;;;;;15.93;3.60;;;3.30;99.90;;;;;;5006767;28;20208;-44
2022/03/19 06:19:50;;;;;;;8.90;3.50;;;3.20;99.90;;;;;;5012318;28;20235;-44
2022/03/19 06:22:18;;;;;;;13.90;4.13;;;3.30;99.90;;;;;;5016060;28;20442;-43
2022/03/19 06:24:45;;;;;;;11.57;3.40;;;3.30;99.90;;;;;;5009994;28;20326;-45
2022/03/19 06:27:12;;;;;;;14.33;4.27;;;3.20;99.90;;;;;;4992044;28;20217;-45
2022/03/19 06:29:39;;;;;;;11.00;3.40;;;3.20;99.90;;;;;;4981681;28;20814;-45
2022/03/19 06:32:06;;;;;;;10.57;4.27;;;3.20;99.90;;;;;;5009913;28;20284;-44
2022/03/19 06:34:33;;;;;;;10.23;3.93;;;3.10;99.90;;;;;;4996896;28;20202;-46
2022/03/19 06:39:46;;;;;;;14.17;5.03;;;3.10;99.90;;;;;;5003272;28;20219;-45
2022/03/19 06:42:12;;;;;;;21.27;4.03;;;3.20;99.90;;;;;;5012734;28;20264;-45
2022/03/19 06:44:39;;;;;;;16.97;4.70;;;3.20;99.90;;;;;;4984501;28;20808;-45
2022/03/19 06:47:07;;;;;;;8.63;4.40;;;3.20;99.90;;;;;;5017431;28;20214;-44
2022/03/19 06:49:33;;;;;;;10.37;4.23;;;3.20;99.90;;;;;;5001515;28;20516;-46
2022/03/19 06:52:00;;;;;;;11.83;3.93;;;3.30;99.90;;;;;;5001270;28;20592;-45
2022/03/19 06:54:27;;;;;;;14.93;4.00;;;3.30;99.90;;;;;;5008030;28;20497;-45
2022/03/19 06:56:55;;;;;;;15.80;4.20;;;3.30;99.90;;;;;;5016815;28;20210;-44
2022/03/19 06:59:22;;;;;;;8.67;3.93;;;3.40;99.90;;;;;;4985054;28;20220;-49
2022/03/19 07:01:49;;;;;;;11.23;3.87;;;3.50;99.90;;;;;;4978745;28;20226;-48
2022/03/19 07:04:16;;;;;;;16.00;3.93;;;3.50;99.90;;;;;;4990643;28;20230;-45
2022/03/19 07:06:43;;;;;;;10.03;3.93;;;3.60;99.90;;;;;;5007650;28;20527;-43
2022/03/19 07:09:10;;;;;;;9.73;3.80;;;3.60;99.90;;;;;;5010618;28;20281;-45
2022/03/19 07:11:37;;;;;;;14.73;3.87;;;3.70;99.90;;;;;;5002704;28;20213;-45
2022/03/19 07:14:10;;;;;;;11.07;3.70;;;3.70;99.90;;;;;;4991382;28;20684;-45
2022/03/19 07:16:37;;;;;;;23.47;4.23;;;3.70;99.90;;;;;;4989846;28;20211;-44
2022/03/19 07:19:04;;;;;;;8.47;3.43;;;3.70;99.90;;;;;;5012809;28;20237;-45
2022/03/19 07:21:31;;;;;;;10.37;3.63;;;3.70;99.90;;;;;;4987221;28;20209;-44
2022/03/19 07:23:58;;;;;;;14.23;4.03;;;3.80;99.90;;;;;;5003725;28;20234;-45
2022/03/19 07:26:26;;;;;;;11.10;3.90;;;3.80;99.90;;;;;;5007420;28;20690;-44
2022/03/19 07:28:53;;;;;;;11.47;3.47;;;3.90;99.90;;;;;;5021393;28;20219;-45
2022/03/19 07:31:22;;;;;;;11.60;4.13;;;4.00;99.90;;;;;;4977616;28;20210;-45
2022/03/19 07:33:50;;;;;;;11.03;4.17;;;4.00;99.90;;;;;;5012403;28;20331;-45
2022/03/19 07:36:18;;;;;;;6.03;3.10;;;4.10;99.90;;;;;;5000538;28;21218;-45
2022/03/19 07:38:45;;;;;;;15.23;3.57;;;4.10;99.90;;;;;;5004022;28;20213;-45
2022/03/19 07:43:57;;;;;;;7.27;3.83;;;4.30;99.90;;;;;;5009100;28;20271;-46
2022/03/19 07:46:27;;;;;;;7.30;3.10;;;4.40;99.90;;;;;;4992042;28;20296;-46
2022/03/19 07:48:54;;;;;;;14.33;3.90;;;4.50;99.90;;;;;;5005925;28;20470;-46
2022/03/19 07:51:21;;;;;;;10.30;3.40;;;4.50;99.90;;;;;;5003818;28;20206;-46
2022/03/19 07:53:48;;;;;;;8.40;3.53;;;4.70;99.90;;;;;;4992449;28;20267;-45
2022/03/19 07:56:14;;;;;;;7.67;3.30;;;4.70;99.90;;;;;;4996436;28;20473;-45
2022/03/19 07:58:42;;;;;;;11.70;3.17;;;4.90;99.90;;;;;;5016370;28;20213;-45
2022/03/19 08:01:09;;;;;;;10.13;3.10;;;5.00;99.90;;;;;;4985262;28;20367;-44
2022/03/19 08:03:37;;;;;;;8.13;2.90;;;5.00;99.90;;;;;;5003023;28;20313;-46
2022/03/19 08:06:05;;;;;;;12.70;2.67;;;5.10;99.90;;;;;;5002972;28;20481;-45
2022/03/19 08:08:33;;;;;;;7.93;3.07;;;5.30;99.90;;;;;;5005570;28;20535;-44
2022/03/19 08:11:01;;;;;;;8.53;2.80;;;5.30;99.90;;;;;;4987522;28;20213;-45
2022/03/19 08:13:28;;;;;;;9.23;3.03;;;5.40;99.90;;;;;;5011522;28;20226;-45
2022/03/19 08:15:55;;;;;;;6.23;3.23;;;5.50;99.90;;;;;;4984828;28;20231;-45
2022/03/19 08:18:22;;;;;;;6.97;2.77;;;5.50;99.90;;;;;;4989715;28;20930;-44
2022/03/19 08:20:50;;;;;;;10.27;2.33;;;5.70;99.90;;;;;;5013551;28;20280;-45
2022/03/19 08:23:19;;;;;;;5.70;2.03;;;5.70;99.90;;;;;;4999971;28;20669;-44
2022/03/19 08:25:46;;;;;;;6.50;2.27;;;5.90;99.90;;;;;;5002415;28;21152;-45
2022/03/19 08:28:13;;;;;;;5.50;2.33;;;5.90;99.90;;;;;;5005701;28;20289;-44
2022/03/19 08:30:40;;;;;;;13.77;2.97;;;6.00;99.90;;;;;;5008188;28;32653;-44
2022/03/19 08:33:07;;;;;;;7.50;2.90;;;6.10;99.90;;;;;;4992549;28;20229;-46
2022/03/19 08:35:34;;;;;;;8.30;2.70;;;6.10;99.90;;;;;;5003179;28;20474;-44
2022/03/19 08:40:46;;;;;;;6.20;2.53;;;6.30;99.90;;;;;;4994927;28;20244;-45
2022/03/19 08:43:13;;;;;;;8.87;2.77;;;6.30;99.90;;;;;;5018876;28;20221;-44
2022/03/19 08:45:40;;;;;;;10.73;2.40;;;6.30;99.90;;;;;;4993176;28;20371;-45
2022/03/19 08:48:09;;;;;;;8.83;2.13;;;6.40;99.90;;;;;;4998797;28;20220;-44
2022/03/19 08:50:36;;;;;;;8.90;2.40;;;6.50;99.90;;;;;;4981925;28;20222;-44
2022/03/19 08:53:05;;;;;;;4.40;2.00;;;6.50;99.90;;;;;;5004120;28;21794;-44
2022/03/19 08:55:32;;;;;;;6.47;2.00;;;6.60;99.90;;;;;;4978296;28;20198;-44
2022/03/19 08:57:59;;;;;;;7.47;2.40;;;6.70;99.90;;;;;;4994650;28;20216;-44
2022/03/19 09:00:26;;;;;;;3.93;1.80;;;6.80;99.90;;;;;;5003345;28;20244;-46
2022/03/19 09:02:55;;;;;;;3.53;2.00;;;6.80;99.90;;;;;;4997124;28;20243;-43
2022/03/19 09:05:22;;;;;;;5.80;2.37;;;6.90;99.90;;;;;;4981602;28;20233;-49
2022/03/19 09:07:49;;;;;;;5.63;2.07;;;7.00;99.90;;;;;;4996123;28;20318;-45
2022/03/19 09:10:17;;;;;;;4.13;1.70;;;7.00;99.90;;;;;;4952189;28;20210;-48
2022/03/19 09:12:44;;;;;;;5.03;1.60;;;7.20;99.90;;;;;;4990174;28;20237;-46
2022/03/19 09:15:13;;;;;;;10.37;2.23;;;7.30;99.90;;;;;;4992699;28;20293;-48
2022/03/19 09:17:40;;;;;;;7.73;2.13;;;7.40;99.90;;;;;;4981744;28;20237;-49
2022/03/19 09:20:10;;;;;;;6.83;2.00;;;7.50;99.90;;;;;;4987692;28;20287;-49
2022/03/19 09:22:37;;;;;;;7.10;2.10;;;7.40;99.90;;;;;;4998867;28;20232;-45
2022/03/19 09:25:04;;;;;;;7.03;1.80;;;7.60;99.90;;;;;;5004390;28;20336;-49
2022/03/19 09:27:32;;;;;;;7.27;2.07;;;7.70;99.90;;;;;;4982043;28;20213;-46
2022/03/19 09:29:59;;;;;;;6.57;1.97;;;7.80;99.90;;;;;;4990223;28;20684;-44
2022/03/19 09:32:26;;;;;;;9.10;2.47;;;7.80;99.90;;;;;;5011669;28;20236;-43
2022/03/19 09:34:53;;;;;;;13.37;1.80;;;7.90;99.90;;;;;;4980507;28;20526;-46
2022/03/19 09:37:20;;;;;;;8.73;2.30;;;8.00;99.90;;;;;;4990640;28;20216;-49
2022/03/19 09:39:49;;;;;;;4.80;1.60;;;8.10;99.90;;;;;;5009481;28;20382;-45
2022/03/19 09:42:15;;;;;;;4.53;1.47;;;8.10;99.90;;;;;;4984648;28;20250;-48
2022/03/19 09:44:44;;;;;;;8.07;1.70;;;8.20;99.90;;;;;;4986329;28;20364;-48
2022/03/19 09:47:12;;;;;;;2.50;1.50;;;8.20;99.90;;;;;;5004062;28;20226;-47
2022/03/19 09:49:39;;;;;;;7.10;2.07;;;8.20;99.90;;;;;;4979993;28;24589;-45
2022/03/19 09:52:06;;;;;;;6.77;1.70;;;8.30;99.90;;;;;;5005335;28;20210;-44
2022/03/19 09:54:33;;;;;;;6.13;2.07;;;8.30;99.90;;;;;;4996561;28;20210;-47
2022/03/19 09:57:00;;;;;;;8.80;1.90;;;8.50;99.90;;;;;;4982741;28;20273;-48
2022/03/19 09:59:28;;;;;;;5.13;1.50;;;8.50;99.90;;;;;;4987460;28;20453;-45
2022/03/19 10:01:57;;;;;;;5.83;1.63;;;8.50;99.90;;;;;;5004397;28;20252;-46
2022/03/19 10:04:25;;;;;;;8.13;1.70;;;8.60;99.90;;;;;;4998832;28;23427;-45
2022/03/19 10:09:42;;;;;;;4.57;1.40;;;8.70;99.90;;;;;;4996494;28;20451;-45
2022/03/19 10:12:15;;;;;;;6.33;1.50;;;8.80;99.90;;;;;;4985659;28;20697;-44
2022/03/19 10:14:46;;;;;;;9.40;2.10;;;8.80;99.90;;;;;;5003004;28;20224;-46
2022/03/19 10:17:29;;;;;;;4.90;1.50;;;8.90;99.90;;;;;;4999269;28;20206;-45
2022/03/19 10:20:00;;;;;;;4.73;1.97;;;8.90;99.90;;;;;;4997433;28;20221;-47
2022/03/19 10:22:29;;;;;;;10.73;2.10;;;9.00;99.90;;;;;;5024865;28;20225;-45
2022/03/19 10:24:58;;;;;;;6.63;1.40;;;9.00;99.90;;;;;;4988621;28;20222;-43
2022/03/19 10:27:25;;;;;;;5.30;1.63;;;9.00;99.90;;;;;;5012781;28;20229;-45
2022/03/19 10:30:06;;;;;;;18.93;1.93;;;9.00;99.90;;;;;;4982895;28;20206;-43
2022/03/19 10:32:35;;;;;;;3.77;1.53;;;9.10;99.90;;;;;;4993077;28;20251;-45
2022/03/19 10:35:02;;;;;;;6.90;1.60;;;9.20;99.90;;;;;;4990679;28;20633;-45
2022/03/19 10:37:37;;;;;;;3.10;1.20;;;9.20;99.90;;;;;;4981728;28;20680;-45
2022/03/19 10:40:06;;;;;;;5.37;1.50;;;9.40;99.90;;;;;;5000292;28;20435;-45
2022/03/19 10:42:38;;;;;;;3.57;1.60;;;9.50;99.90;;;;;;5006043;28;20297;-45
2022/03/19 10:45:07;;;;;;;7.20;1.67;;;9.50;99.90;;;;;;4970913;28;21112;-45
2022/03/19 10:47:42;;;;;;;7.83;1.47;;;9.50;99.90;;;;;;5000821;28;20234;-45
2022/03/19 10:50:11;;;;;;;4.53;1.73;;;9.60;99.90;;;;;;5003047;28;20583;-45
2022/03/19 10:52:38;;;;;;;7.07;1.67;;;9.60;99.90;;;;;;4977219;28;20241;-45
2022/03/19 10:55:07;;;;;;;4.53;1.60;;;9.50;99.90;;;;;;4999510;28;20434;-45
2022/03/19 10:57:35;;;;;;;12.60;2.20;;;9.60;99.90;;;;;;5008488;28;20206;-48
2022/03/19 11:00:03;;;;;;;4.93;1.70;;;9.50;99.90;;;;;;4982821;28;20569;-48
2022/03/19 11:02:32;;;;;;;4.40;1.60;;;9.60;99.90;;;;;;5001771;28;20260;-49
2022/03/19 11:05:02;;;;;;;9.23;2.40;;;9.60;99.90;;;;;;4989505;28;20231;-46
2022/03/19 11:07:34;;;;;;;17.53;2.73;;;9.50;99.90;;;;;;5002997;28;20827;-49
2022/03/19 11:10:04;;;;;;;2.87;1.57;;;9.60;99.90;;;;;;4998148;28;20281;-44
2022/03/19 11:12:33;;;;;;;7.30;1.70;;;9.60;99.90;;;;;;4994735;28;20312;-47
2022/03/19 11:15:04;;;;;;;4.40;1.40;;;9.60;99.90;;;;;;4986400;28;20316;-46
2022/03/19 11:17:32;;;;;;;3.47;1.50;;;9.70;99.90;;;;;;4995635;28;20212;-47
2022/03/19 11:20:02;;;;;;;9.23;1.60;;;9.70;99.90;;;;;;4994389;28;20872;-44
2022/03/19 11:22:39;;;;;;;5.10;1.50;;;9.60;99.90;;;;;;4998712;28;20301;-45
2022/03/19 11:25:11;;;;;;;6.70;1.40;;;9.70;99.90;;;;;;4993558;28;20827;-47
2022/03/19 11:27:41;;;;;;;4.83;1.50;;;9.80;99.90;;;;;;5009252;28;20256;-49
2022/03/19 11:30:17;;;;;;;3.40;1.30;;;9.90;99.90;;;;;;4987206;28;20313;-48
2022/03/19 11:33:03;;;;;;;6.07;1.90;;;10.10;99.90;;;;;;4996222;28;20240;-47
2022/03/19 11:35:32;;;;;;;4.13;1.50;;;10.10;99.90;;;;;;4987276;28;20696;-46
2022/03/19 11:38:01;;;;;;;4.97;1.67;;;10.10;99.90;;;;;;4990902;28;20624;-43
2022/03/19 11:40:32;;;;;;;5.80;1.57;;;10.10;99.90;;;;;;5007634;28;20205;-43
2022/03/19 11:43:01;;;;;;;1.93;1.40;;;10.20;99.90;;;;;;4999549;28;20297;-48
2022/03/19 11:45:38;;;;;;;8.63;1.53;;;10.20;99.90;;;;;;5007335;28;20207;-44
2022/03/19 11:48:25;;;;;;;2.87;1.40;;;10.20;99.90;;;;;;4992930;28;20202;-45
2022/03/19 11:50:54;;;;;;;5.20;1.60;;;10.20;99.90;;;;;;4997940;28;21069;-46
2022/03/19 11:53:26;;;;;;;6.43;1.60;;;10.10;99.90;;;;;;4996330;28;20236;-46
2022/03/19 11:56:03;;;;;;;6.10;1.67;;;10.20;99.90;;;;;;5009951;28;20203;-46
2022/03/19 11:58:32;;;;;;;4.30;1.60;;;10.30;99.90;;;;;;5014435;28;20213;-44
2022/03/19 12:01:01;;;;;;;4.70;1.48;;;10.20;99.90;;;;;;5006190;28;20198;-45
2022/03/19 12:03:32;;;;;;;4.88;1.55;;;10.30;99.90;;;;;;4980631;28;20245;-45
2022/03/19 12:06:37;;;;;;;4.20;1.40;;;10.40;99.90;;;;;;5003276;28;22199;-46
2022/03/19 12:09:04;;;;;;;5.97;1.47;;;10.40;99.90;;;;;;4971140;28;20287;-44
2022/03/19 12:11:32;;;;;;;3.17;1.30;;;10.40;99.90;;;;;;5008955;28;20225;-47
2022/03/19 12:14:00;;;;;;;5.57;1.47;;;10.50;99.90;;;;;;5002810;28;20382;-45
2022/03/19 12:16:40;;;;;;;3.27;1.57;;;10.40;99.90;;;;;;4995801;28;20521;-42
2022/03/19 12:19:08;;;;;;;4.50;1.40;;;10.40;99.90;;;;;;4992310;28;20435;-43
2022/03/19 12:21:37;;;;;;;4.10;1.38;;;10.40;99.90;;;;;;5009263;28;20206;-49
2022/03/19 12:24:33;;;;;;;4.73;1.57;;;10.40;99.90;;;;;;4987193;28;20318;-48
2022/03/19 12:27:00;;;;;;;3.77;1.43;;;10.60;99.90;;;;;;4987663;28;20695;-45
2022/03/19 12:29:32;;;;;;;3.87;1.37;;;10.50;99.90;;;;;;4987555;28;20784;-47
2022/03/19 12:32:00;;;;;;;7.57;1.83;;;10.50;99.90;;;;;;4989708;28;20217;-45
2022/03/19 12:34:30;;;;;;;4.18;1.40;;;10.50;99.90;;;;;;4990449;28;20280;-45
2022/03/19 12:37:01;;;;;;;3.35;1.70;;;10.60;99.90;;;;;;4990190;28;20206;-46
2022/03/19 12:39:29;;;;;;;7.93;1.23;;;10.60;99.90;;;;;;4982116;28;20273;-46
2022/03/19 12:41:55;;;;;;;4.18;1.15;;;10.60;99.90;;;;;;4999936;28;20275;-48
2022/03/19 12:44:24;;;;;;;3.17;1.33;;;10.60;99.90;;;;;;4983514;28;20253;-46
2022/03/19 12:46:57;;;;;;;2.33;1.20;;;10.60;99.90;;;;;;5001543;28;20455;-45
2022/03/19 12:49:24;;;;;;;3.70;1.23;;;10.60;99.90;;;;;;5010780;28;21057;-45
2022/03/19 12:51:52;;;;;;;3.28;1.55;;;10.70;99.90;;;;;;4995945;28;20700;-49
2022/03/19 12:54:24;;;;;;;5.10;1.50;;;10.70;99.90;;;;;;4970181;28;20632;-47
2022/03/19 12:56:52;;;;;;;3.08;1.30;;;10.70;99.90;;;;;;4995227;28;20205;-45
2022/03/19 12:59:23;;;;;;;3.15;1.10;;;10.90;99.90;;;;;;4999745;28;20416;-46
2022/03/19 13:01:50;;;;;;;3.60;1.10;;;10.80;99.90;;;;;;4983089;28;20202;-45
2022/03/19 13:04:23;;;;;;;3.72;1.10;;;10.80;99.90;;;;;;4999848;28;20226;-45
2022/03/19 13:06:51;;;;;;;1.50;1.23;;;10.80;99.90;;;;;;4975056;28;20234;-45
2022/03/19 13:09:31;;;;;;;1.70;1.13;;;10.80;99.90;;;;;;4996790;28;20530;-45
2022/03/19 13:11:59;;;;;;;1.95;0.90;;;10.80;99.90;;;;;;4994954;28;20206;-47
2022/03/19 13:14:26;;;;;;;2.00;0.93;;;10.90;99.90;;;;;;4992871;28;20567;-44
2022/03/19 13:16:55;;;;;;;2.83;0.90;;;10.90;99.90;;;;;;4981596;28;20202;-44